createdAt,value
2022-09-02T00:00:28.155Z,99891.45
2022-09-02T00:02:54.978Z,99890.94
2022-09-02T00:05:21.882Z,99888.96
2022-09-02T00:07:48.527Z,99889.11
2022-09-02T00:10:15.296Z,99890.60
2022-09-02T00:12:41.922Z,99894.64
2022-09-02T00:15:09.169Z,99894.50
2022-09-02T00:17:35.952Z,99893.13
2022-09-02T00:20:02.839Z,99896.48
2022-09-02T00:22:29.592Z,99897.36
2022-09-02T00:24:56.231Z,99900.04
2022-09-02T00:27:23.279Z,99905.38
2022-09-02T00:29:50.059Z,99906.98
2022-09-02T00:32:16.706Z,99906.48
2022-09-02T00:34:43.992Z,99908.09
2022-09-02T00:37:10.779Z,99911.08
2022-09-02T00:39:37.510Z,99905.91
2022-09-02T00:42:04.223Z,99912.57
2022-09-02T00:44:30.940Z,99913.29
2022-09-02T00:46:57.573Z,99916.95
2022-09-02T00:49:32.198Z,99920.52
2022-09-02T00:52:06.066Z,99926.59
2022-09-02T00:54:35.001Z,99928.08
2022-09-02T00:57:01.978Z,99930.04
2022-09-02T00:59:58.455Z,99931.70
2022-09-02T01:02:26.299Z,99934.77
2022-09-02T01:04:56.897Z,99934.52
2022-09-02T01:07:26.128Z,99941.80
2022-09-02T01:09:55.502Z,99944.60
2022-09-02T01:12:24.293Z,99949.77
2022-09-02T01:14:51.035Z,99948.10
2022-09-02T01:17:19.465Z,99949.59
2022-09-02T01:19:49.287Z,99949.73
2022-09-02T01:22:24.185Z,99950.32
2022-09-02T01:24:51.130Z,99948.13
2022-09-02T01:27:22.079Z,99949.77
2022-09-02T01:29:56.111Z,99955.95
2022-09-02T01:32:22.953Z,99955.61
2022-09-02T01:34:49.686Z,99961.67
2022-09-02T01:37:16.513Z,99961.83
2022-09-02T01:40:41.222Z,99960.02
2022-09-02T01:43:13.561Z,99959.20
2022-09-02T01:45:41.615Z,99962.73
2022-09-02T01:48:11.017Z,99966.45
2022-09-02T01:50:42.515Z,99966.98
2022-09-02T01:53:12.130Z,99969.98
2022-09-02T01:55:39.010Z,99971.92
2022-09-02T01:58:05.749Z,99972.98
2022-09-02T02:00:32.495Z,99972.85
2022-09-02T02:02:59.335Z,99973.94
2022-09-02T02:05:26.003Z,99973.92
2022-09-02T02:07:53.024Z,99978.77
2022-09-02T02:10:20.672Z,99979.55
2022-09-02T02:12:48.415Z,99979.48
2022-09-02T02:15:18.034Z,99981.93
2022-09-02T02:17:44.872Z,99979.30
2022-09-02T02:20:11.888Z,99982.70
2022-09-02T02:22:39.078Z,99984.59
2022-09-02T02:25:06.572Z,99984.39
2022-09-02T02:27:33.489Z,99984.88
2022-09-02T02:30:05.309Z,99982.36
2022-09-02T02:32:32.676Z,99983.09
2022-09-02T02:34:59.847Z,99983.54
2022-09-02T02:37:26.779Z,99981.02
2022-09-02T02:39:53.812Z,99979.77
2022-09-02T02:42:21.162Z,99981.55
2022-09-02T02:44:48.009Z,99984.95
2022-09-02T02:47:14.731Z,99983.19
2022-09-02T02:49:43.110Z,99985.56
2022-09-02T02:52:10.615Z,99985.89
2022-09-02T02:54:37.793Z,99989.95
2022-09-02T02:57:05.440Z,99990.15
2022-09-02T02:59:32.779Z,99992.77
2022-09-02T03:01:59.685Z,99991.83
2022-09-02T03:04:26.621Z,99998.51
2022-09-02T03:06:53.948Z,99998.29
2022-09-02T03:09:21.146Z,100003.34
2022-09-02T03:11:48.108Z,100005.78
2022-09-02T03:14:15.265Z,100009.90
2022-09-02T03:16:42.084Z,100007.30
2022-09-02T03:19:08.827Z,100011.08
2022-09-02T03:21:38.855Z,100011.04
2022-09-02T03:24:07.604Z,100013.84
2022-09-02T03:26:34.478Z,100017.85
2022-09-02T03:29:01.198Z,100020.29
2022-09-02T03:31:28.647Z,100019.62
2022-09-02T03:33:55.769Z,100028.45
2022-09-02T03:36:24.938Z,100030.89
2022-09-02T03:38:51.993Z,100032.58
2022-09-02T03:41:18.844Z,100037.17
2022-09-02T03:43:46.380Z,100036.74
2022-09-02T03:46:14.004Z,100039.72
2022-09-02T03:48:41.236Z,100045.55
2022-09-02T03:51:09.719Z,100049.91
2022-09-02T03:53:36.646Z,100050.11
2022-09-02T03:56:07.730Z,100056.88
2022-09-02T03:58:35.268Z,100059.94
2022-09-02T04:01:02.491Z,100063.42
2022-09-02T04:03:30.189Z,100061.19
2022-09-02T04:05:56.878Z,100069.45
2022-09-02T04:08:24.751Z,100065.02
2022-09-02T04:10:52.196Z,100067.29
2022-09-02T04:13:18.962Z,100067.14
2022-09-02T04:15:48.231Z,100069.45
2022-09-02T04:18:16.679Z,100073.00
2022-09-02T04:20:44.206Z,100075.27
2022-09-02T04:23:11.528Z,100078.02
2022-09-02T04:25:42.955Z,100077.34
2022-09-02T04:28:10.269Z,100083.70
2022-09-02T04:30:41.104Z,100085.53
2022-09-02T04:33:07.814Z,100087.70
2022-09-02T04:35:36.011Z,100082.42
2022-09-02T04:38:03.081Z,100081.48
2022-09-02T04:40:31.305Z,100079.60
2022-09-02T04:42:58.714Z,100083.23
2022-09-02T04:45:29.737Z,100084.40
2022-09-02T04:47:57.251Z,100085.27
2022-09-02T04:50:24.029Z,100078.27
2022-09-02T04:52:58.087Z,100081.42
2022-09-02T04:55:25.366Z,100080.77
2022-09-02T04:57:52.331Z,100082.05
2022-09-02T05:00:19.568Z,100083.33
2022-09-02T05:02:47.931Z,100085.88
2022-09-02T05:05:15.116Z,100082.48
2022-09-02T05:07:41.859Z,100086.52
2022-09-02T05:10:09.253Z,100086.38
2022-09-02T05:12:40.557Z,100085.20
2022-09-02T05:15:09.829Z,100086.46
2022-09-02T05:17:36.794Z,100088.01
2022-09-02T05:20:07.678Z,100088.55
2022-09-02T05:22:35.987Z,100085.29
2022-09-02T05:25:07.525Z,100086.35
2022-09-02T05:27:35.141Z,100084.96
2022-09-02T05:30:02.453Z,100084.11
2022-09-02T05:32:32.395Z,100090.07
2022-09-02T05:35:01.200Z,100092.33
2022-09-02T05:37:28.065Z,100092.59
2022-09-02T05:39:54.829Z,100090.77
2022-09-02T05:42:21.737Z,100094.79
2022-09-02T05:44:50.171Z,100095.29
2022-09-02T05:47:19.205Z,100094.98
2022-09-02T05:49:46.041Z,100090.07
2022-09-02T05:52:14.887Z,100091.20
2022-09-02T05:54:49.336Z,100092.26
2022-09-02T05:57:19.311Z,100098.06
2022-09-02T06:00:03.076Z,100100.47
2022-09-02T06:02:42.406Z,100098.83
2022-09-02T06:05:13.072Z,100097.84
2022-09-02T06:07:43.557Z,100101.46
2022-09-02T06:10:11.143Z,100104.82
2022-09-02T06:12:42.439Z,100107.07
2022-09-02T06:15:10.520Z,100108.55
2022-09-02T06:17:38.931Z,100112.20
2022-09-02T06:20:06.998Z,100116.44
2022-09-02T06:22:34.294Z,100118.47
2022-09-02T06:25:01.187Z,100120.16
2022-09-02T06:27:29.445Z,100118.08
2022-09-02T06:29:56.491Z,100121.21
2022-09-02T06:32:24.361Z,100121.94
2022-09-02T06:34:55.107Z,100119.85
2022-09-02T06:37:21.986Z,100120.17
2022-09-02T06:39:50.675Z,100123.08
2022-09-02T06:42:21.536Z,100121.55
2022-09-02T06:45:03.849Z,100123.25
2022-09-02T06:47:31.823Z,100122.97
2022-09-02T06:50:00.051Z,100125.26
2022-09-02T06:52:26.815Z,100125.20
2022-09-02T06:54:54.994Z,100129.33
2022-09-02T06:57:21.846Z,100130.92
2022-09-02T06:59:52.009Z,100131.98
2022-09-02T07:02:20.521Z,100135.04
2022-09-02T07:05:06.181Z,100137.18
2022-09-02T07:07:35.215Z,100144.36
2022-09-02T07:10:07.057Z,100142.87
2022-09-02T07:12:35.902Z,100147.00
2022-09-02T07:15:07.161Z,100147.10
2022-09-02T07:17:37.287Z,100150.45
2022-09-02T07:20:06.943Z,100147.71
2022-09-02T07:22:39.775Z,100150.68
2022-09-02T07:25:08.547Z,100156.34
2022-09-02T07:27:35.723Z,100153.65
2022-09-02T07:30:04.926Z,100154.31
2022-09-02T07:32:31.824Z,100155.34
2022-09-02T07:34:58.618Z,100154.72
2022-09-02T07:37:25.378Z,100154.22
2022-09-02T07:39:53.140Z,100153.64
2022-09-02T07:42:20.435Z,100153.14
2022-09-02T07:44:47.948Z,100153.02
2022-09-02T07:47:15.199Z,100148.13
2022-09-02T07:52:30.524Z,100148.25
2022-09-02T07:54:57.328Z,100144.55
2022-09-02T07:57:24.735Z,100142.71
2022-09-02T07:59:52.111Z,100141.98
2022-09-02T08:02:19.358Z,100142.67
2022-09-02T08:04:46.720Z,100140.41
2022-09-02T08:07:14.560Z,100138.09
2022-09-02T08:09:41.352Z,100132.45
2022-09-02T08:12:08.200Z,100128.30
2022-09-02T08:14:35.067Z,100131.17
2022-09-02T08:17:03.357Z,100135.80
2022-09-02T08:19:30.312Z,100137.55
2022-09-02T08:22:06.426Z,100132.80
2022-09-02T08:24:33.240Z,100129.27
2022-09-02T08:27:00.291Z,100125.40
2022-09-02T08:29:27.005Z,100127.14
2022-09-02T08:31:54.235Z,100129.92
2022-09-02T08:34:21.254Z,100128.80
2022-09-02T08:36:56.017Z,100130.63
2022-09-02T08:42:16.330Z,100125.41
2022-09-02T08:44:43.129Z,100124.48
2022-09-02T08:47:15.577Z,100123.86
2022-09-02T08:49:44.255Z,100131.67
2022-09-02T08:52:17.169Z,100129.73
2022-09-02T08:54:48.838Z,100126.28
2022-09-02T08:57:15.586Z,100126.84
2022-09-02T08:59:44.086Z,100127.62
2022-09-02T09:02:47.388Z,100123.27
2022-09-02T09:05:23.187Z,100121.89
2022-09-02T09:07:50.015Z,100111.64
2022-09-02T09:10:32.574Z,100122.29
2022-09-02T09:13:32.233Z,100123.94
2022-09-02T09:16:14.955Z,100117.80
2022-09-02T09:18:45.778Z,100119.88
2022-09-02T09:21:14.035Z,100119.91
2022-09-02T09:23:41.096Z,100113.29
2022-09-02T09:26:12.602Z,100112.96
2022-09-02T09:28:48.089Z,100121.50
2022-09-02T09:31:18.831Z,100125.98
2022-09-02T09:33:58.831Z,100117.74
2022-09-02T09:36:40.463Z,100111.23
2022-09-02T09:39:22.171Z,100116.64
2022-09-02T09:41:49.262Z,100111.41
2022-09-02T09:44:49.206Z,100110.89
2022-09-02T09:47:19.545Z,100108.23
2022-09-02T09:49:50.126Z,100113.00
2022-09-02T09:52:26.959Z,100118.38
2022-09-02T09:55:15.462Z,100115.46
2022-09-02T09:57:51.123Z,100116.06
2022-09-02T10:00:27.464Z,100114.40
2022-09-02T10:02:56.021Z,100113.06
2022-09-02T10:05:25.258Z,100113.81
2022-09-02T10:08:03.323Z,100112.48
2022-09-02T10:10:31.221Z,100107.02
2022-09-02T10:13:01.498Z,100108.94
2022-09-02T10:16:03.456Z,100107.27
2022-09-02T10:18:32.772Z,100105.29
2022-09-02T10:21:16.546Z,100107.10
2022-09-02T10:24:05.003Z,100107.11
2022-09-02T10:26:42.307Z,100106.71
2022-09-02T10:29:27.803Z,100100.20
2022-09-02T10:31:57.544Z,100093.52
2022-09-02T10:34:32.639Z,100095.61
2022-09-02T10:37:11.746Z,100093.65
2022-09-02T10:39:56.798Z,100095.80
2022-09-02T10:43:00.940Z,100101.57
2022-09-02T10:45:47.040Z,100096.90
2022-09-02T10:48:30.787Z,100096.29
2022-09-02T10:51:22.800Z,100094.88
2022-09-02T10:54:34.338Z,100097.56
2022-09-02T10:57:13.914Z,100096.02
2022-09-02T10:59:44.459Z,100095.89
2022-09-02T11:02:25.055Z,100088.77
2022-09-02T11:04:56.659Z,100094.49
2022-09-02T11:07:29.938Z,100100.11
2022-09-02T11:10:00.339Z,100097.50
2022-09-02T11:12:51.654Z,100099.84
2022-09-02T11:15:32.014Z,100099.27
2022-09-02T11:18:07.995Z,100098.86
2022-09-02T11:20:40.583Z,100104.58
2022-09-02T11:23:20.527Z,100100.85
2022-09-02T11:25:55.654Z,100095.48
2022-09-02T11:28:59.940Z,100098.23
2022-09-02T11:31:54.258Z,100097.38
2022-09-02T11:34:35.360Z,100099.15
2022-09-02T11:37:06.957Z,100097.13
2022-09-02T11:39:59.187Z,100091.63
2022-09-02T11:42:41.239Z,100098.55
2022-09-02T11:45:45.586Z,100097.89
2022-09-02T11:48:29.519Z,100097.05
2022-09-02T11:50:59.325Z,100093.40
2022-09-02T11:53:35.877Z,100096.36
2022-09-02T11:56:09.659Z,100090.84
2022-09-02T11:58:43.752Z,100088.46
2022-09-02T12:01:47.855Z,100092.30
2022-09-02T12:07:09.101Z,100090.20
2022-09-02T12:12:37.010Z,100088.14
2022-09-02T12:15:04.966Z,100086.02
2022-09-02T12:17:37.215Z,100082.20
2022-09-02T12:20:09.234Z,100079.29
2022-09-02T12:22:40.485Z,100076.73
2022-09-02T12:25:26.948Z,100080.98
2022-09-02T12:28:24.993Z,100077.77
2022-09-02T12:31:10.434Z,100077.64
2022-09-02T12:33:38.223Z,100076.20
2022-09-02T12:36:05.982Z,100076.07
2022-09-02T12:38:36.725Z,100071.21
2022-09-02T12:41:13.474Z,100073.82
2022-09-02T12:43:47.650Z,100073.13
2022-09-02T12:46:45.150Z,100067.88
2022-09-02T12:49:41.258Z,100070.38
2022-09-02T12:52:12.540Z,100071.84
2022-09-02T12:54:39.243Z,100070.69
2022-09-02T12:57:06.504Z,100069.75
2022-09-02T12:59:34.585Z,100063.54
2022-09-02T13:02:31.726Z,100063.98
2022-09-02T13:05:04.558Z,100060.04
2022-09-02T13:07:49.600Z,100061.15
2022-09-02T13:10:39.140Z,100059.42
2022-09-02T13:13:11.847Z,100056.55
2022-09-02T13:16:18.620Z,100058.63
2022-09-02T13:19:07.247Z,100056.90
2022-09-02T13:21:44.138Z,100046.71
2022-09-02T13:24:19.060Z,100049.48
2022-09-02T13:27:15.935Z,100046.03
2022-09-02T13:30:22.080Z,100045.96
2022-09-02T13:33:02.618Z,100037.21
2022-09-02T13:35:29.522Z,100036.86
2022-09-02T13:38:00.515Z,100033.81
2022-09-02T13:40:34.894Z,100030.89
2022-09-02T13:43:03.376Z,100035.98
2022-09-02T13:45:32.889Z,100035.71
2022-09-02T13:48:01.001Z,100039.77
2022-09-02T13:50:29.881Z,100034.08
2022-09-02T13:57:55.910Z,100029.93
2022-09-02T14:00:33.827Z,100032.26
2022-09-02T14:03:06.042Z,100029.48
2022-09-02T14:05:35.653Z,100035.14
2022-09-02T14:08:04.116Z,100030.06
2022-09-02T14:10:31.732Z,100031.44
2022-09-02T14:12:58.569Z,100027.90
2022-09-02T14:15:30.129Z,100029.33
2022-09-02T14:18:26.377Z,100031.60
2022-09-02T14:20:58.310Z,100037.89
2022-09-02T14:23:25.804Z,100037.44
2022-09-02T14:25:56.725Z,100036.79
2022-09-02T14:28:27.683Z,100034.63
2022-09-02T14:31:00.084Z,100033.33
2022-09-02T14:33:36.165Z,100029.46
2022-09-02T14:36:04.561Z,100027.98
2022-09-02T14:38:47.851Z,100026.94
2022-09-02T14:41:17.625Z,100028.69
2022-09-02T14:43:49.357Z,100032.49
2022-09-02T14:46:21.083Z,100028.14
2022-09-02T14:48:54.841Z,100026.30
2022-09-02T14:51:21.895Z,100025.05
2022-09-02T14:53:48.610Z,100026.27
2022-09-02T14:56:15.343Z,100024.61
2022-09-02T14:58:42.088Z,100021.49
2022-09-02T15:01:08.877Z,100019.52
2022-09-02T15:03:37.238Z,100021.54
2022-09-02T15:06:03.962Z,100023.83
2022-09-02T15:08:30.688Z,100021.84
2022-09-02T15:10:58.913Z,100020.44
2022-09-02T15:13:30.256Z,100025.48
2022-09-02T15:15:57.297Z,100029.76
2022-09-02T15:18:24.331Z,100031.72
2022-09-02T15:20:51.659Z,100033.12
2022-09-02T15:23:18.506Z,100033.27
2022-09-02T15:25:45.256Z,100036.35
2022-09-02T15:28:13.327Z,100035.70
2022-09-02T15:30:40.788Z,100039.77
2022-09-02T15:33:08.119Z,100040.63
2022-09-02T15:35:43.258Z,100042.09
2022-09-02T15:38:10.036Z,100043.07
2022-09-02T15:40:36.807Z,100046.14
2022-09-02T15:43:03.531Z,100043.04
2022-09-02T15:45:30.813Z,100048.61
2022-09-02T15:47:58.691Z,100049.87
2022-09-02T15:50:26.278Z,100054.64
2022-09-02T15:52:56.001Z,100053.70
2022-09-02T15:55:29.260Z,100051.98
2022-09-02T15:57:56.794Z,100048.73
2022-09-02T16:00:27.597Z,100047.95
2022-09-02T16:02:54.742Z,100049.13
2022-09-02T16:05:21.524Z,100048.05
2022-09-02T16:07:48.615Z,100049.71
2022-09-02T16:10:15.501Z,100051.16
2022-09-02T16:12:42.225Z,100051.90
2022-09-02T16:15:09.723Z,100056.05
2022-09-02T16:17:36.617Z,100056.32
2022-09-02T16:20:04.710Z,100055.05
2022-09-02T16:22:31.518Z,100054.78
2022-09-02T16:24:58.301Z,100058.55
2022-09-02T16:27:43.539Z,100061.70
2022-09-02T16:30:10.757Z,100059.30
2022-09-02T16:32:38.014Z,100059.84
2022-09-02T16:35:05.234Z,100057.86
2022-09-02T16:37:32.051Z,100057.48
2022-09-02T16:39:58.871Z,100060.54
2022-09-02T16:42:26.012Z,100063.76
2022-09-02T16:44:52.775Z,100063.90
2022-09-02T16:47:19.557Z,100063.64
2022-09-02T16:49:46.569Z,100068.34
2022-09-02T16:52:13.549Z,100071.34
2022-09-02T16:54:41.218Z,100073.34
2022-09-02T16:57:09.068Z,100071.08
2022-09-02T16:59:35.912Z,100079.55
2022-09-02T17:02:02.702Z,100079.86
2022-09-02T17:04:29.743Z,100082.20
2022-09-02T17:06:56.849Z,100081.09
2022-09-02T17:09:23.672Z,100081.05
2022-09-02T17:11:50.377Z,100080.59
2022-09-02T17:14:21.717Z,100088.33
2022-09-02T17:16:49.622Z,100090.40
2022-09-02T17:19:21.350Z,100092.81
2022-09-02T17:21:52.430Z,100091.77
2022-09-02T17:24:20.995Z,100098.25
2022-09-02T17:26:50.607Z,100101.77
2022-09-02T17:29:46.827Z,100100.83
2022-09-02T17:32:06.913Z,100107.08
2022-09-02T17:34:33.883Z,100108.35
2022-09-02T17:37:00.606Z,100110.94
2022-09-02T17:39:27.513Z,100119.23
2022-09-02T17:41:54.365Z,100114.57
2022-09-02T17:44:22.460Z,100116.92
2022-09-02T17:46:49.378Z,100120.88
2022-09-02T17:49:17.510Z,100120.16
2022-09-02T17:51:44.953Z,100123.02
2022-09-02T17:54:11.791Z,100130.05
2022-09-02T17:56:57.391Z,100126.75
2022-09-02T17:59:45.423Z,100129.28
2022-09-02T18:02:15.165Z,100131.27
2022-09-02T18:05:06.412Z,100125.77
2022-09-02T18:07:40.635Z,100120.17
2022-09-02T18:10:07.484Z,100119.33
2022-09-02T18:12:36.284Z,100122.52
2022-09-02T18:15:04.844Z,100118.89
2022-09-02T18:17:35.359Z,100117.74
2022-09-02T18:20:09.438Z,100119.84
2022-09-02T18:22:47.151Z,100120.23
2022-09-02T18:25:45.963Z,100123.34
2022-09-02T18:28:16.714Z,100126.67
2022-09-02T18:31:34.386Z,100130.20
2022-09-02T18:34:30.213Z,100129.77
2022-09-02T18:37:17.577Z,100132.86
2022-09-02T18:40:11.879Z,100134.62
2022-09-02T18:42:47.398Z,100132.69
2022-09-02T18:45:54.635Z,100134.34
2022-09-02T18:48:25.545Z,100132.52
2022-09-02T18:51:16.170Z,100134.15
2022-09-02T18:53:48.777Z,100135.38
2022-09-02T18:56:15.646Z,100135.38
2022-09-02T18:58:45.632Z,100138.22
2022-09-02T19:01:25.441Z,100137.49
2022-09-02T19:03:52.393Z,100143.81
2022-09-02T19:06:21.251Z,100139.33
2022-09-02T19:08:48.457Z,100140.09
2022-09-02T19:11:16.583Z,100136.73
2022-09-02T19:13:53.058Z,100133.27
2022-09-02T19:16:27.274Z,100141.13
2022-09-02T19:18:54.369Z,100146.61
2022-09-02T19:21:30.678Z,100146.77
2022-09-02T19:23:57.461Z,100142.70
2022-09-02T19:26:25.799Z,100149.49
2022-09-02T19:28:52.512Z,100152.57
2022-09-02T19:31:22.014Z,100151.05
2022-09-02T19:33:53.202Z,100153.19
2022-09-02T19:36:21.203Z,100156.42
2022-09-02T19:38:48.121Z,100153.90
2022-09-02T19:41:14.876Z,100151.05
2022-09-02T19:43:41.792Z,100146.71
2022-09-02T19:46:27.740Z,100146.55
2022-09-02T19:48:57.414Z,100151.55
2022-09-02T19:51:27.163Z,100152.36
2022-09-02T19:53:56.531Z,100150.87
2022-09-02T19:56:23.398Z,100147.35
2022-09-02T19:58:50.146Z,100146.02
2022-09-02T20:01:17.019Z,100145.20
2022-09-02T20:03:44.532Z,100146.73
2022-09-02T20:06:11.322Z,100142.56
2022-09-02T20:08:38.080Z,100139.52
2022-09-02T20:11:05.430Z,100142.43
2022-09-02T20:13:40.056Z,100142.97
2022-09-02T20:16:16.610Z,100147.07
2022-09-02T20:18:46.774Z,100149.83
2022-09-02T20:21:18.856Z,100149.15
2022-09-02T20:23:45.638Z,100148.52
2022-09-02T20:26:31.576Z,100145.50
2022-09-02T20:29:20.077Z,100146.75
2022-09-02T20:31:52.820Z,100148.58
2022-09-02T20:34:33.671Z,100151.70
2022-09-02T20:37:07.245Z,100154.33
2022-09-02T20:39:39.940Z,100156.02
2022-09-02T20:42:27.890Z,100161.61
2022-09-02T20:45:09.160Z,100163.20
2022-09-02T20:47:54.551Z,100166.09
2022-09-02T20:50:35.267Z,100165.04
2022-09-02T20:53:20.308Z,100160.69
2022-09-02T20:55:51.202Z,100159.36
2022-09-02T20:58:22.346Z,100161.89
2022-09-02T21:01:09.488Z,100161.01
2022-09-02T21:04:12.801Z,100160.41
2022-09-02T21:06:42.787Z,100168.96
2022-09-02T21:09:12.530Z,100172.79
2022-09-02T21:11:48.030Z,100176.06
2022-09-02T21:14:24.303Z,100184.33
2022-09-02T21:17:05.301Z,100183.28
2022-09-02T21:19:41.704Z,100179.29
2022-09-02T21:22:14.206Z,100181.69
2022-09-02T21:24:55.494Z,100182.16
2022-09-02T21:27:28.335Z,100185.71
2022-09-02T21:30:08.666Z,100187.99
2022-09-02T21:32:46.115Z,100191.91
2022-09-02T21:35:29.920Z,100194.39
2022-09-02T21:37:59.347Z,100189.70
2022-09-02T21:40:31.795Z,100191.23
2022-09-02T21:43:17.337Z,100191.27
2022-09-02T21:46:09.032Z,100193.64
2022-09-02T21:48:51.738Z,100194.24
2022-09-02T21:51:29.678Z,100195.11
2022-09-02T21:54:25.772Z,100191.65
2022-09-02T21:57:06.907Z,100190.11
2022-09-02T22:00:00.386Z,100194.70
2022-09-02T22:02:50.190Z,100193.39
2022-09-02T22:05:21.149Z,100191.95
2022-09-02T22:07:50.774Z,100191.84
2022-09-02T22:10:36.458Z,100194.05
2022-09-02T22:13:03.592Z,100184.80
2022-09-02T22:15:58.112Z,100183.74
2022-09-02T22:18:40.832Z,100181.00
2022-09-02T22:21:19.746Z,100181.60
2022-09-02T22:23:46.633Z,100182.31
2022-09-02T22:26:20.391Z,100180.13
2022-09-02T22:28:50.510Z,100181.16
2022-09-02T22:31:18.705Z,100181.50
2022-09-02T22:33:51.399Z,100179.36
2022-09-02T22:36:43.119Z,100179.25
2022-09-02T22:39:12.640Z,100174.48
2022-09-02T22:41:52.680Z,100171.13
2022-09-02T22:45:02.942Z,100174.63
2022-09-02T22:47:48.250Z,100172.44
2022-09-02T22:50:35.564Z,100170.90
2022-09-02T22:53:02.647Z,100168.21
2022-09-02T22:55:39.755Z,100165.09
2022-09-02T22:58:25.139Z,100169.08
2022-09-02T23:01:03.597Z,100170.12
2022-09-02T23:03:56.788Z,100172.64
2022-09-02T23:06:24.155Z,100172.95
2022-09-02T23:08:51.029Z,100177.59
2022-09-02T23:11:39.917Z,100177.54
2022-09-02T23:14:24.076Z,100175.19
2022-09-02T23:17:20.349Z,100173.38
2022-09-02T23:19:56.560Z,100177.66
2022-09-02T23:22:25.070Z,100181.11
2022-09-02T23:25:13.515Z,100181.28
2022-09-02T23:27:44.394Z,100188.35
2022-09-02T23:30:12.207Z,100190.60
2022-09-02T23:33:03.694Z,100194.75
2022-09-02T23:35:36.093Z,100195.69
2022-09-02T23:38:06.339Z,100194.48
2022-09-02T23:40:40.869Z,100192.05
2022-09-02T23:43:08.018Z,100194.47
2022-09-02T23:45:34.899Z,100192.17
2022-09-02T23:48:26.712Z,100186.91
2022-09-02T23:51:32.789Z,100188.67
2022-09-02T23:54:24.224Z,100191.13
2022-09-02T23:57:10.152Z,100190.03
